createdAt,value
2019-05-29T00:00:35.510Z,990.08
2019-05-29T00:01:35.493Z,990.05
2019-05-29T00:02:35.494Z,990.10
2019-05-29T00:03:35.473Z,990.14
2019-05-29T00:04:35.508Z,990.13
2019-05-29T00:05:35.454Z,990.12
2019-05-29T00:06:35.458Z,990.14
2019-05-29T00:07:35.445Z,990.17
2019-05-29T00:08:35.480Z,990.18
2019-05-29T00:09:35.406Z,990.24
2019-05-29T00:10:35.393Z,990.17
2019-05-29T00:11:35.385Z,990.16
2019-05-29T00:12:35.398Z,990.21
2019-05-29T00:13:35.446Z,990.21
2019-05-29T00:14:35.352Z,990.24
2019-05-29T00:15:35.341Z,990.30
2019-05-29T00:16:35.330Z,990.35
2019-05-29T00:17:35.335Z,990.35
2019-05-29T00:18:35.308Z,990.28
2019-05-29T00:19:35.330Z,990.23
2019-05-29T00:20:35.288Z,990.27
2019-05-29T00:21:35.279Z,990.25
2019-05-29T00:22:35.280Z,990.28
2019-05-29T00:23:35.260Z,990.29
2019-05-29T00:24:35.246Z,990.25
2019-05-29T00:25:35.271Z,990.31
2019-05-29T00:26:35.221Z,990.28
2019-05-29T00:27:35.225Z,990.34
2019-05-29T00:28:35.202Z,990.29
2019-05-29T00:29:35.427Z,990.45
2019-05-29T00:30:35.365Z,990.42
2019-05-29T00:31:35.341Z,990.41
2019-05-29T00:32:35.440Z,990.42
2019-05-29T00:33:35.308Z,990.47
2019-05-29T00:34:35.241Z,990.47
2019-05-29T00:35:56.389Z,990.38
2019-05-29T00:37:00.569Z,990.42
2019-05-29T00:37:35.135Z,990.47
2019-05-29T00:39:28.417Z,990.43
2019-05-29T00:39:38.382Z,990.46
2019-05-29T00:40:40.531Z,990.47
2019-05-29T00:42:11.102Z,990.48
2019-05-29T00:42:35.097Z,990.47
2019-05-29T00:44:15.644Z,990.47
2019-05-29T00:45:37.652Z,990.44
2019-05-29T00:46:36.742Z,990.48
2019-05-29T00:48:45.646Z,990.46
2019-05-29T00:50:00.465Z,990.43
2019-05-29T00:50:35.080Z,990.44
2019-05-29T00:51:35.001Z,990.47
2019-05-29T00:52:34.947Z,990.53
2019-05-29T00:53:34.973Z,990.49
2019-05-29T00:54:34.924Z,990.53
2019-05-29T00:55:34.907Z,990.52
2019-05-29T00:56:34.903Z,990.58
2019-05-29T00:57:34.888Z,990.59
2019-05-29T00:58:34.893Z,990.56
2019-05-29T00:59:34.864Z,990.58
2019-05-29T01:00:34.856Z,990.59
2019-05-29T01:01:34.842Z,990.59
2019-05-29T01:02:34.840Z,990.57
2019-05-29T01:03:34.875Z,990.60
2019-05-29T01:04:34.808Z,990.58
2019-05-29T01:05:34.800Z,990.61
2019-05-29T01:06:34.837Z,990.55
2019-05-29T01:07:34.781Z,990.51
2019-05-29T01:08:34.781Z,990.54
2019-05-29T01:09:34.794Z,990.59
2019-05-29T01:10:34.746Z,990.55
2019-05-29T01:11:34.737Z,990.64
2019-05-29T01:12:34.729Z,990.57
2019-05-29T01:13:34.728Z,990.58
2019-05-29T01:14:49.207Z,990.67
2019-05-29T01:15:35.696Z,990.61
2019-05-29T01:16:34.681Z,990.61
2019-05-29T01:17:34.669Z,990.59
2019-05-29T01:18:34.672Z,990.64
2019-05-29T01:19:34.649Z,990.65
2019-05-29T01:20:34.665Z,990.72
2019-05-29T01:21:34.629Z,990.69
2019-05-29T01:22:34.622Z,990.71
2019-05-29T01:23:34.617Z,990.65
2019-05-29T01:24:34.596Z,990.70
2019-05-29T01:25:34.586Z,990.66
2019-05-29T01:26:34.626Z,990.77
2019-05-29T01:27:34.562Z,990.68
2019-05-29T01:28:34.571Z,990.72
2019-05-29T01:29:34.541Z,990.68
2019-05-29T01:30:34.531Z,990.72
2019-05-29T01:31:34.524Z,990.75
2019-05-29T01:32:34.541Z,990.70
2019-05-29T01:33:34.511Z,990.74
2019-05-29T01:34:34.486Z,990.73
2019-05-29T01:35:34.482Z,990.75
2019-05-29T01:36:34.464Z,990.73
2019-05-29T01:37:34.456Z,990.77
2019-05-29T01:38:34.498Z,990.79
2019-05-29T01:39:34.511Z,990.71
2019-05-29T01:40:34.422Z,990.69
2019-05-29T01:41:34.412Z,990.70
2019-05-29T01:42:34.412Z,990.75
2019-05-29T01:43:34.416Z,990.75
2019-05-29T01:44:34.417Z,990.68
2019-05-29T01:45:34.368Z,990.77
2019-05-29T01:46:34.358Z,990.73
2019-05-29T01:47:34.346Z,990.71
2019-05-29T01:48:34.334Z,990.72
2019-05-29T01:49:34.340Z,990.71
2019-05-29T01:50:34.337Z,990.74
2019-05-29T01:51:34.301Z,990.70
2019-05-29T01:52:34.292Z,990.71
2019-05-29T01:53:34.284Z,990.75
2019-05-29T01:54:34.281Z,990.69
2019-05-29T01:55:34.263Z,990.77
2019-05-29T01:56:34.281Z,990.76
2019-05-29T01:57:34.240Z,990.76
2019-05-29T01:58:34.227Z,990.81
2019-05-29T01:59:34.230Z,990.72
2019-05-29T02:00:34.209Z,990.71
2019-05-29T02:01:34.200Z,990.73
2019-05-29T02:02:34.215Z,990.78
2019-05-29T02:03:34.172Z,990.73
2019-05-29T02:04:34.175Z,990.79
2019-05-29T02:05:34.154Z,990.77
2019-05-29T02:06:34.140Z,990.79
2019-05-29T02:07:34.130Z,990.81
2019-05-29T02:08:34.183Z,990.79
2019-05-29T02:09:34.118Z,990.83
2019-05-29T02:10:34.097Z,990.81
2019-05-29T02:11:34.089Z,990.78
2019-05-29T02:12:34.077Z,990.86
2019-05-29T02:13:34.067Z,990.84
2019-05-29T02:14:34.103Z,990.88
2019-05-29T02:15:34.190Z,990.89
2019-05-29T02:16:34.037Z,990.94
2019-05-29T02:17:34.020Z,990.91
2019-05-29T02:18:34.010Z,990.92
2019-05-29T02:19:34.010Z,990.98
2019-05-29T02:20:34.028Z,990.95
2019-05-29T02:21:33.989Z,990.97
2019-05-29T02:22:33.973Z,990.95
2019-05-29T02:23:33.956Z,990.95
2019-05-29T02:24:33.956Z,990.96
2019-05-29T02:25:33.932Z,990.93
2019-05-29T02:26:33.924Z,990.95
2019-05-29T02:27:33.945Z,991.00
2019-05-29T02:28:33.901Z,990.95
2019-05-29T02:29:33.899Z,991.00
2019-05-29T02:30:33.881Z,990.99
2019-05-29T02:31:33.876Z,990.98
2019-05-29T02:32:33.863Z,991.00
2019-05-29T02:33:33.926Z,991.00
2019-05-29T02:34:33.855Z,991.00
2019-05-29T02:35:33.824Z,991.03
2019-05-29T02:36:33.863Z,990.99
2019-05-29T02:37:33.833Z,991.06
2019-05-29T02:38:33.802Z,991.02
2019-05-29T02:39:33.844Z,990.97
2019-05-29T02:40:33.774Z,990.99
2019-05-29T02:41:33.762Z,991.05
2019-05-29T02:42:33.750Z,991.07
2019-05-29T02:43:33.740Z,991.03
2019-05-29T02:44:33.771Z,991.10
2019-05-29T02:45:52.743Z,991.04
2019-05-29T02:46:34.706Z,991.15
2019-05-29T02:47:33.695Z,991.07
2019-05-29T02:48:33.686Z,991.12
2019-05-29T02:49:33.694Z,991.14
2019-05-29T02:50:33.710Z,991.16
2019-05-29T02:51:33.659Z,991.18
2019-05-29T02:52:33.639Z,991.13
2019-05-29T02:53:33.630Z,991.11
2019-05-29T02:54:33.650Z,991.18
2019-05-29T02:55:33.702Z,991.15
2019-05-29T02:56:33.597Z,991.19
2019-05-29T02:57:33.593Z,991.22
2019-05-29T02:58:33.612Z,991.23
2019-05-29T02:59:33.564Z,991.23
2019-05-29T03:00:33.570Z,991.18
2019-05-29T03:01:33.550Z,991.18
2019-05-29T03:02:33.535Z,991.24
2019-05-29T03:03:39.531Z,991.24
2019-05-29T03:04:34.551Z,991.25
2019-05-29T03:05:33.513Z,991.28
2019-05-29T03:06:33.490Z,991.31
2019-05-29T03:07:33.478Z,991.26
2019-05-29T03:08:34.393Z,991.29
2019-05-29T03:09:33.463Z,991.26
2019-05-29T03:10:33.499Z,991.28
2019-05-29T03:11:33.671Z,991.34
2019-05-29T03:12:33.801Z,991.32
2019-05-29T03:13:33.792Z,991.34
2019-05-29T03:14:34.728Z,991.39
2019-05-29T03:15:33.855Z,991.40
2019-05-29T03:16:34.912Z,991.40
2019-05-29T03:17:33.811Z,991.44
2019-05-29T03:18:34.955Z,991.43
2019-05-29T03:19:34.726Z,991.45
2019-05-29T03:20:34.536Z,991.46
2019-05-29T03:21:34.774Z,991.48
2019-05-29T03:22:35.136Z,991.51
2019-05-29T03:23:35.725Z,991.52
2019-05-29T03:24:34.925Z,991.51
2019-05-29T03:25:34.921Z,991.52
2019-05-29T03:26:34.889Z,991.52
2019-05-29T03:27:33.980Z,991.58
2019-05-29T03:28:35.041Z,991.56
2019-05-29T03:29:34.331Z,991.55
2019-05-29T03:30:41.351Z,991.71
2019-05-29T03:31:41.894Z,991.67
2019-05-29T03:32:42.357Z,991.66
2019-05-29T03:33:41.230Z,991.74
2019-05-29T03:34:39.258Z,991.75
2019-05-29T03:35:43.220Z,991.79
2019-05-29T03:36:39.311Z,991.77
2019-05-29T03:37:34.521Z,991.78
2019-05-29T03:38:34.643Z,991.81
2019-05-29T03:39:34.574Z,991.81
2019-05-29T03:40:34.987Z,991.81
2019-05-29T03:41:34.758Z,991.88
2019-05-29T03:42:34.347Z,991.79
2019-05-29T03:43:35.783Z,991.81
2019-05-29T03:44:35.152Z,991.86
2019-05-29T03:45:33.999Z,991.91
2019-05-29T03:46:41.135Z,991.83
2019-05-29T03:47:35.055Z,991.87
2019-05-29T03:48:34.422Z,991.89
2019-05-29T03:49:33.224Z,991.91
2019-05-29T03:50:34.762Z,991.92
2019-05-29T03:51:35.160Z,991.87
2019-05-29T03:52:34.728Z,991.93
2019-05-29T03:53:33.829Z,991.95
2019-05-29T03:54:34.943Z,991.91
2019-05-29T03:55:33.726Z,991.92
2019-05-29T03:56:34.650Z,991.90
2019-05-29T03:57:33.898Z,992.00
2019-05-29T03:58:33.556Z,992.00
2019-05-29T03:59:33.444Z,991.98
2019-05-29T04:00:41.814Z,992.00
2019-05-29T04:01:35.563Z,992.03
2019-05-29T04:02:33.319Z,992.02
2019-05-29T04:03:33.489Z,992.06
2019-05-29T04:04:33.529Z,992.04
2019-05-29T04:05:33.506Z,992.05
2019-05-29T04:06:33.382Z,992.07
2019-05-29T04:07:33.752Z,992.08
2019-05-29T04:08:33.572Z,992.07
2019-05-29T04:09:33.408Z,992.09
2019-05-29T04:10:34.960Z,992.13
2019-05-29T04:11:33.203Z,992.14
2019-05-29T04:12:33.482Z,992.17
2019-05-29T04:13:34.043Z,992.15
2019-05-29T04:14:33.508Z,992.19
2019-05-29T04:15:33.837Z,992.16
2019-05-29T04:16:52.406Z,992.16
2019-05-29T04:17:33.798Z,992.22
2019-05-29T04:18:33.872Z,992.21
2019-05-29T04:19:34.872Z,992.21
2019-05-29T04:20:33.600Z,992.20
2019-05-29T04:21:34.219Z,992.25
2019-05-29T04:22:34.257Z,992.23
2019-05-29T04:23:34.101Z,992.27
2019-05-29T04:24:33.969Z,992.22
2019-05-29T04:25:36.023Z,992.28
2019-05-29T04:26:34.006Z,992.28
2019-05-29T04:27:34.178Z,992.31
2019-05-29T04:28:34.485Z,992.30
2019-05-29T04:29:33.823Z,992.36
2019-05-29T04:30:34.188Z,992.31
2019-05-29T04:31:34.345Z,992.37
2019-05-29T04:32:34.069Z,992.35
2019-05-29T04:33:33.111Z,992.39
2019-05-29T04:34:34.241Z,992.38
2019-05-29T04:35:32.673Z,992.40
2019-05-29T04:36:33.034Z,992.36
2019-05-29T04:37:32.664Z,992.43
2019-05-29T04:38:33.782Z,992.43
2019-05-29T04:39:32.801Z,992.45
2019-05-29T04:40:32.871Z,992.44
2019-05-29T04:41:32.824Z,992.47
2019-05-29T04:42:33.978Z,992.46
2019-05-29T04:43:33.361Z,992.51
2019-05-29T04:44:33.425Z,992.46
2019-05-29T04:45:33.193Z,992.52
2019-05-29T04:46:33.935Z,992.48
2019-05-29T04:47:33.303Z,992.53
2019-05-29T04:48:34.058Z,992.55
2019-05-29T04:49:33.729Z,992.53
2019-05-29T04:50:33.489Z,992.55
2019-05-29T04:51:33.069Z,992.56
2019-05-29T04:52:33.838Z,992.53
2019-05-29T04:53:33.435Z,992.60
2019-05-29T04:54:33.381Z,992.61
2019-05-29T04:55:32.724Z,992.62
2019-05-29T04:56:32.766Z,992.61
2019-05-29T04:57:32.835Z,992.71
2019-05-29T04:58:32.851Z,992.66
2019-05-29T04:59:33.054Z,992.74
2019-05-29T05:00:33.105Z,992.72
2019-05-29T05:01:33.033Z,992.72
2019-05-29T05:02:33.033Z,992.70
2019-05-29T05:03:33.183Z,992.73
2019-05-29T05:04:33.201Z,992.73
2019-05-29T05:05:33.261Z,992.74
2019-05-29T05:06:33.205Z,992.79
2019-05-29T05:07:33.154Z,992.82
2019-05-29T05:08:33.253Z,992.82
2019-05-29T05:09:33.328Z,992.85
2019-05-29T05:10:33.331Z,992.89
2019-05-29T05:11:33.335Z,992.86
2019-05-29T05:12:32.435Z,992.88
2019-05-29T05:13:32.108Z,992.93
2019-05-29T05:14:32.100Z,992.92
2019-05-29T05:15:32.095Z,992.94
2019-05-29T05:16:32.092Z,992.95
2019-05-29T05:17:32.099Z,992.99
2019-05-29T05:18:32.051Z,992.97
2019-05-29T05:19:32.032Z,992.92
2019-05-29T05:20:32.076Z,992.93
2019-05-29T05:21:32.053Z,992.96
2019-05-29T05:22:32.099Z,992.99
2019-05-29T05:23:32.036Z,992.95
2019-05-29T05:24:32.193Z,992.98
2019-05-29T05:25:32.215Z,992.98
2019-05-29T05:26:32.160Z,993.03
2019-05-29T05:27:32.190Z,993.04
2019-05-29T05:28:32.208Z,993.05
2019-05-29T05:29:32.142Z,993.03
2019-05-29T05:30:32.389Z,993.05
2019-05-29T05:31:32.391Z,993.06
2019-05-29T05:32:32.626Z,993.09
2019-05-29T05:33:32.406Z,993.09
2019-05-29T05:34:32.571Z,993.16
2019-05-29T05:35:32.618Z,993.11
2019-05-29T05:36:32.669Z,993.16
2019-05-29T05:37:32.671Z,993.17
2019-05-29T05:38:32.607Z,993.20
2019-05-29T05:39:32.762Z,993.11
2019-05-29T05:40:33.013Z,993.16
2019-05-29T05:41:32.719Z,993.21
2019-05-29T05:42:32.894Z,993.22
2019-05-29T05:43:32.849Z,993.19
2019-05-29T05:44:32.756Z,993.25
2019-05-29T05:45:32.894Z,993.23
2019-05-29T05:46:32.855Z,993.25
2019-05-29T05:47:44.940Z,993.28
2019-05-29T05:48:33.011Z,993.29
2019-05-29T05:49:31.707Z,993.26
2019-05-29T05:50:31.705Z,993.32
2019-05-29T05:51:31.741Z,993.29
2019-05-29T05:52:31.701Z,993.28
2019-05-29T05:53:31.682Z,993.27
2019-05-29T05:54:31.659Z,993.31
2019-05-29T05:55:31.654Z,993.31
2019-05-29T05:56:31.633Z,993.33
2019-05-29T05:57:31.645Z,993.32
2019-05-29T05:58:31.724Z,993.35
2019-05-29T05:59:31.615Z,993.39
2019-05-29T06:00:32.013Z,993.38
2019-05-29T06:01:31.788Z,993.33
2019-05-29T06:02:31.747Z,993.36
2019-05-29T06:03:31.879Z,993.34
2019-05-29T06:04:31.803Z,993.40
2019-05-29T06:05:32.109Z,993.40
2019-05-29T06:06:31.961Z,993.34
2019-05-29T06:07:31.977Z,993.33
2019-05-29T06:08:32.030Z,993.44
2019-05-29T06:09:32.666Z,993.43
2019-05-29T06:10:32.052Z,993.36
2019-05-29T06:11:32.203Z,993.39
2019-05-29T06:12:32.258Z,993.42
2019-05-29T06:13:32.154Z,993.40
2019-05-29T06:14:32.328Z,993.45
2019-05-29T06:15:32.337Z,993.43
2019-05-29T06:16:32.864Z,993.45
2019-05-29T06:17:32.332Z,993.42
2019-05-29T06:18:32.397Z,993.44
2019-05-29T06:19:32.711Z,993.48
2019-05-29T06:20:32.538Z,993.45
2019-05-29T06:21:32.488Z,993.48
2019-05-29T06:22:32.814Z,993.49
2019-05-29T06:23:32.692Z,993.51
2019-05-29T06:24:31.326Z,993.48
2019-05-29T06:25:31.481Z,993.44
2019-05-29T06:26:31.310Z,993.53
2019-05-29T06:27:31.321Z,993.59
2019-05-29T06:28:31.298Z,993.44
2019-05-29T06:29:31.360Z,993.55
2019-05-29T06:30:31.261Z,993.59
2019-05-29T06:31:31.249Z,993.58
2019-05-29T06:32:31.252Z,993.58
2019-05-29T06:33:31.268Z,993.55
2019-05-29T06:34:31.210Z,993.57
2019-05-29T06:35:31.246Z,993.58
2019-05-29T06:36:31.203Z,993.64
2019-05-29T06:37:31.194Z,993.59
2019-05-29T06:38:31.208Z,993.67
2019-05-29T06:39:31.165Z,993.65
2019-05-29T06:40:31.150Z,993.61
2019-05-29T06:41:31.150Z,993.66
2019-05-29T06:42:31.144Z,993.68
2019-05-29T06:43:31.191Z,993.68
2019-05-29T06:44:31.114Z,993.68
2019-05-29T06:45:31.094Z,993.70
2019-05-29T06:46:31.085Z,993.76
2019-05-29T06:47:31.080Z,993.72
2019-05-29T06:48:42.376Z,993.75
2019-05-29T06:49:32.055Z,993.74
2019-05-29T06:50:31.158Z,993.76
2019-05-29T06:51:31.071Z,993.79
2019-05-29T06:52:31.031Z,993.75
2019-05-29T06:53:31.042Z,993.80
2019-05-29T06:54:31.013Z,993.79
2019-05-29T06:55:30.990Z,993.80
2019-05-29T06:56:30.978Z,993.77
2019-05-29T06:57:30.973Z,993.83
2019-05-29T06:58:31.019Z,993.82
2019-05-29T06:59:30.949Z,993.90
2019-05-29T07:00:35.216Z,993.85
2019-05-29T07:01:30.917Z,993.89
2019-05-29T07:02:31.890Z,993.91
2019-05-29T07:03:30.918Z,993.92
2019-05-29T07:04:30.905Z,993.93
2019-05-29T07:05:30.914Z,993.86
2019-05-29T07:06:30.890Z,993.86
2019-05-29T07:07:30.873Z,993.90
2019-05-29T07:08:38.985Z,993.91
2019-05-29T07:09:31.882Z,993.93
2019-05-29T07:10:30.906Z,993.91
2019-05-29T07:11:30.814Z,993.92
2019-05-29T07:12:30.799Z,993.91
2019-05-29T07:13:34.707Z,993.96
2019-05-29T07:14:30.789Z,993.97
2019-05-29T07:15:30.761Z,993.94
2019-05-29T07:16:43.918Z,993.99
2019-05-29T07:17:31.749Z,994.03
2019-05-29T07:18:30.738Z,994.04
2019-05-29T07:19:47.725Z,994.11
2019-05-29T07:20:31.718Z,994.06
2019-05-29T07:21:30.697Z,994.11
2019-05-29T07:22:30.733Z,994.08
2019-05-29T07:23:30.733Z,994.11
2019-05-29T07:24:30.701Z,994.13
2019-05-29T07:25:30.654Z,994.14
2019-05-29T07:26:30.658Z,994.19
2019-05-29T07:27:30.633Z,994.16
2019-05-29T07:28:30.628Z,994.18
2019-05-29T07:29:30.649Z,994.10
2019-05-29T07:30:30.641Z,994.11
2019-05-29T07:31:30.606Z,994.15
2019-05-29T07:32:30.583Z,994.16
2019-05-29T07:33:30.569Z,994.17
2019-05-29T07:34:30.570Z,994.18
2019-05-29T07:35:30.543Z,994.22
2019-05-29T07:36:30.562Z,994.21
2019-05-29T07:37:30.535Z,994.25
2019-05-29T07:38:30.516Z,994.23
2019-05-29T07:39:30.516Z,994.21
2019-05-29T07:40:30.492Z,994.28
2019-05-29T07:41:30.487Z,994.25
2019-05-29T07:42:30.535Z,994.23
2019-05-29T07:43:30.461Z,994.28
2019-05-29T07:44:30.456Z,994.31
2019-05-29T07:45:30.434Z,994.34
2019-05-29T07:46:30.430Z,994.28
2019-05-29T07:47:30.428Z,994.25
2019-05-29T07:48:30.418Z,994.29
2019-05-29T07:49:39.127Z,994.24
2019-05-29T07:50:31.378Z,994.26
2019-05-29T07:51:30.370Z,994.30
2019-05-29T07:52:30.412Z,994.27
2019-05-29T07:53:33.617Z,994.25
2019-05-29T07:54:30.380Z,994.25
2019-05-29T07:55:30.339Z,994.30
2019-05-29T07:56:30.329Z,994.32
2019-05-29T07:57:30.316Z,994.26
2019-05-29T07:58:30.302Z,994.25
2019-05-29T07:59:30.315Z,994.31
2019-05-29T08:00:35.592Z,994.34
2019-05-29T08:01:31.268Z,994.31
2019-05-29T08:02:30.246Z,994.38
2019-05-29T08:03:30.261Z,994.30
2019-05-29T08:04:30.242Z,994.29
2019-05-29T08:05:30.220Z,994.31
2019-05-29T08:06:30.234Z,994.32
2019-05-29T08:07:30.196Z,994.36
2019-05-29T08:08:30.183Z,994.34
2019-05-29T08:09:30.182Z,994.32
2019-05-29T08:10:30.164Z,994.45
2019-05-29T08:11:30.154Z,994.36
2019-05-29T08:12:30.162Z,994.32
2019-05-29T08:13:30.134Z,994.29
2019-05-29T08:14:30.130Z,994.42
2019-05-29T08:15:30.111Z,994.43
2019-05-29T08:16:30.106Z,994.37
2019-05-29T08:17:30.090Z,994.38
2019-05-29T08:18:30.100Z,994.39
2019-05-29T08:19:30.083Z,994.43
2019-05-29T08:20:30.051Z,994.43
2019-05-29T08:21:30.053Z,994.38
2019-05-29T08:22:34.261Z,994.42
2019-05-29T08:23:30.025Z,994.40
2019-05-29T08:24:30.078Z,994.47
2019-05-29T08:25:30.030Z,994.41
2019-05-29T08:26:29.986Z,994.45
2019-05-29T08:27:29.977Z,994.55
2019-05-29T08:28:29.975Z,994.48
2019-05-29T08:29:29.981Z,994.45
2019-05-29T08:30:30.069Z,994.52
2019-05-29T08:31:29.933Z,994.63
2019-05-29T08:32:29.923Z,994.51
2019-05-29T08:33:29.916Z,994.44
2019-05-29T08:34:29.922Z,994.38
2019-05-29T08:35:29.893Z,994.56
2019-05-29T08:36:29.905Z,994.62
2019-05-29T08:37:29.867Z,994.68
2019-05-29T08:38:29.861Z,994.60
2019-05-29T08:39:35.901Z,994.59
2019-05-29T08:40:30.844Z,994.45
2019-05-29T08:41:29.857Z,994.61
2019-05-29T08:42:29.813Z,994.60
2019-05-29T08:43:29.803Z,994.58
2019-05-29T08:44:29.817Z,994.40
2019-05-29T08:45:29.787Z,994.40
2019-05-29T08:46:33.151Z,994.51
2019-05-29T08:47:29.789Z,994.43
2019-05-29T08:48:29.751Z,994.50
2019-05-29T08:49:29.756Z,994.48
2019-05-29T08:51:28.586Z,994.49
2019-05-29T08:52:28.572Z,994.45
2019-05-29T08:53:28.571Z,994.43
2019-05-29T08:54:28.561Z,994.41
2019-05-29T08:55:28.558Z,994.59
2019-05-29T08:56:28.706Z,994.60
2019-05-29T08:57:28.528Z,994.60
2019-05-29T08:58:28.512Z,994.56
2019-05-29T08:59:28.500Z,994.58
2019-05-29T09:00:28.533Z,994.60
2019-05-29T09:01:28.487Z,994.63
2019-05-29T09:02:28.466Z,994.72
2019-05-29T09:03:28.460Z,994.72
2019-05-29T09:04:28.466Z,994.68
2019-05-29T09:05:28.486Z,994.50
2019-05-29T09:06:28.423Z,994.50
2019-05-29T09:07:28.411Z,994.44
2019-05-29T09:08:28.405Z,994.46
2019-05-29T09:09:28.391Z,994.44
2019-05-29T09:10:28.395Z,994.53
2019-05-29T09:11:28.371Z,994.50
2019-05-29T09:12:29.972Z,994.57
2019-05-29T09:13:28.350Z,994.60
2019-05-29T09:14:28.338Z,994.66
2019-05-29T09:15:28.338Z,994.73
2019-05-29T09:16:28.346Z,994.85
2019-05-29T09:17:28.302Z,994.61
2019-05-29T09:18:28.290Z,994.60
2019-05-29T09:19:28.307Z,994.65
2019-05-29T09:20:43.566Z,994.65
2019-05-29T09:21:29.261Z,994.65
2019-05-29T09:22:28.247Z,994.60
2019-05-29T09:23:28.238Z,994.60
2019-05-29T09:24:28.227Z,994.70
2019-05-29T09:25:28.266Z,994.73
2019-05-29T09:26:28.210Z,994.61
2019-05-29T09:27:28.193Z,994.66
2019-05-29T09:28:28.184Z,994.79
2019-05-29T09:29:28.230Z,994.85
2019-05-29T09:30:28.199Z,994.87
2019-05-29T09:31:28.147Z,994.85
2019-05-29T09:32:48.477Z,994.82
2019-05-29T09:33:29.128Z,994.78
2019-05-29T09:34:28.153Z,994.77
2019-05-29T09:35:28.129Z,994.66
2019-05-29T09:36:28.100Z,994.65
2019-05-29T09:37:28.087Z,994.70
2019-05-29T09:38:28.076Z,994.56
2019-05-29T09:39:28.065Z,994.55
2019-05-29T09:40:28.083Z,994.56
2019-05-29T09:41:28.053Z,994.53
2019-05-29T09:42:28.033Z,994.61
2019-05-29T09:43:30.667Z,994.63
2019-05-29T09:44:38.077Z,994.60
2019-05-29T09:45:29.028Z,994.72
2019-05-29T09:46:28.011Z,994.74
2019-05-29T09:47:27.984Z,994.66
2019-05-29T09:48:28.825Z,994.67
2019-05-29T09:49:27.958Z,994.60
2019-05-29T09:50:46.491Z,994.64
2019-05-29T09:51:28.936Z,994.73
2019-05-29T09:52:30.652Z,994.81
2019-05-29T09:53:27.986Z,994.80
2019-05-29T09:54:28.111Z,994.80
2019-05-29T09:55:27.920Z,994.73
2019-05-29T09:56:27.962Z,994.72
2019-05-29T09:57:27.879Z,994.75
2019-05-29T09:58:27.858Z,994.66
2019-05-29T09:59:27.852Z,994.72
2019-05-29T10:00:27.932Z,994.74
2019-05-29T10:01:27.845Z,994.70
2019-05-29T10:02:27.823Z,994.80
2019-05-29T10:03:27.810Z,994.95
2019-05-29T10:04:27.804Z,994.83
2019-05-29T10:05:27.822Z,994.96
2019-05-29T10:06:27.844Z,994.76
2019-05-29T10:07:27.767Z,995.01
2019-05-29T10:08:27.749Z,994.85
2019-05-29T10:09:27.742Z,994.76
2019-05-29T10:10:27.736Z,994.76
2019-05-29T10:11:27.743Z,994.77
2019-05-29T10:12:27.713Z,994.78
2019-05-29T10:13:27.749Z,994.87
2019-05-29T10:14:27.688Z,994.80
2019-05-29T10:15:27.683Z,994.77
2019-05-29T10:16:27.779Z,994.78
2019-05-29T10:17:27.649Z,994.97
2019-05-29T10:18:32.507Z,994.96
2019-05-29T10:19:28.668Z,994.90
2019-05-29T10:20:27.626Z,994.89
2019-05-29T10:21:39.408Z,994.90
2019-05-29T10:22:28.677Z,994.92
2019-05-29T10:23:27.597Z,994.70
2019-05-29T10:24:27.603Z,994.83
2019-05-29T10:25:27.591Z,994.88
2019-05-29T10:26:27.581Z,994.76
2019-05-29T10:27:27.614Z,994.82
2019-05-29T10:28:27.578Z,994.80
2019-05-29T10:29:27.595Z,994.74
2019-05-29T10:30:27.519Z,994.79
2019-05-29T10:31:27.518Z,994.76
2019-05-29T10:32:27.507Z,994.81
2019-05-29T10:33:27.484Z,994.76
2019-05-29T10:34:27.485Z,994.76
2019-05-29T10:35:27.505Z,994.81
2019-05-29T10:36:27.480Z,994.74
2019-05-29T10:37:27.458Z,994.69
2019-05-29T10:38:27.440Z,994.65
2019-05-29T10:39:27.427Z,994.69
2019-05-29T10:40:27.425Z,994.76
2019-05-29T10:41:27.425Z,994.77
2019-05-29T10:42:27.449Z,994.79
2019-05-29T10:43:34.313Z,994.55
2019-05-29T10:44:28.370Z,994.58
2019-05-29T10:45:27.361Z,994.55
2019-05-29T10:46:27.363Z,994.65
2019-05-29T10:47:27.356Z,994.69
2019-05-29T10:48:27.376Z,994.52
2019-05-29T10:49:27.367Z,994.64
2019-05-29T10:50:27.304Z,994.54
2019-05-29T10:51:27.317Z,994.61
2019-05-29T10:52:27.301Z,994.60
2019-05-29T10:53:27.277Z,994.54
2019-05-29T10:54:27.274Z,994.54
2019-05-29T10:55:27.323Z,994.60
2019-05-29T10:56:27.275Z,994.55
2019-05-29T10:57:27.237Z,994.65
2019-05-29T10:58:27.237Z,994.62
2019-05-29T10:59:27.218Z,994.65
2019-05-29T11:00:27.209Z,994.69
2019-05-29T11:01:27.210Z,994.77
2019-05-29T11:02:27.277Z,994.71
2019-05-29T11:03:27.179Z,994.78
2019-05-29T11:04:27.161Z,994.75
2019-05-29T11:05:27.161Z,994.73
2019-05-29T11:06:27.173Z,994.73
2019-05-29T11:07:27.145Z,994.83
2019-05-29T11:08:27.116Z,994.82
2019-05-29T11:09:42.932Z,994.87
2019-05-29T11:10:28.101Z,994.78
2019-05-29T11:11:27.090Z,994.84
2019-05-29T11:12:27.102Z,994.89
2019-05-29T11:13:27.062Z,994.84
2019-05-29T11:14:27.104Z,994.80
2019-05-29T11:15:27.041Z,994.83
2019-05-29T11:16:27.023Z,994.81
2019-05-29T11:17:27.051Z,994.77
2019-05-29T11:18:27.017Z,994.80
2019-05-29T11:19:27.007Z,994.71
2019-05-29T11:20:27.055Z,994.73
2019-05-29T11:21:26.992Z,994.75
2019-05-29T11:22:26.983Z,994.75
2019-05-29T11:23:26.985Z,994.77
2019-05-29T11:24:26.981Z,994.74
2019-05-29T11:25:27.887Z,994.73
2019-05-29T11:26:26.996Z,994.75
2019-05-29T11:27:26.943Z,994.76
2019-05-29T11:28:26.905Z,994.80
2019-05-29T11:29:26.894Z,994.78
2019-05-29T11:30:26.910Z,994.84
2019-05-29T11:31:26.876Z,994.81
2019-05-29T11:32:26.890Z,994.88
2019-05-29T11:33:26.854Z,994.88
2019-05-29T11:34:26.894Z,994.88
2019-05-29T11:35:26.833Z,994.90
2019-05-29T11:36:26.822Z,994.87
2019-05-29T11:37:26.845Z,994.84
2019-05-29T11:38:26.818Z,994.83
2019-05-29T11:39:26.775Z,994.82
2019-05-29T11:40:26.793Z,994.84
2019-05-29T11:41:26.976Z,994.78
2019-05-29T11:42:28.201Z,994.74
2019-05-29T11:43:26.753Z,994.53
2019-05-29T11:44:26.739Z,994.60
2019-05-29T11:45:26.715Z,994.59
2019-05-29T11:46:26.740Z,994.63
2019-05-29T11:47:26.741Z,994.59
2019-05-29T11:48:26.691Z,994.59
2019-05-29T11:49:26.679Z,994.61
2019-05-29T11:50:26.661Z,994.68
2019-05-29T11:51:26.673Z,994.65
2019-05-29T11:52:41.791Z,994.68
2019-05-29T11:53:27.667Z,994.85
2019-05-29T11:54:26.662Z,994.77
2019-05-29T11:55:26.625Z,994.77
2019-05-29T11:56:26.614Z,994.79
2019-05-29T11:57:26.639Z,994.76
2019-05-29T11:58:31.132Z,994.79
2019-05-29T11:59:27.815Z,994.62
2019-05-29T12:00:26.633Z,994.56
2019-05-29T12:01:26.552Z,994.62
2019-05-29T12:02:26.564Z,994.61
2019-05-29T12:03:26.575Z,994.59
2019-05-29T12:04:27.071Z,994.70
2019-05-29T12:05:26.508Z,994.73
2019-05-29T12:06:26.548Z,994.73
2019-05-29T12:07:26.505Z,994.78
2019-05-29T12:08:26.478Z,994.83
2019-05-29T12:09:32.835Z,994.79
2019-05-29T12:10:27.450Z,994.79
2019-05-29T12:11:26.443Z,994.76
2019-05-29T12:12:26.453Z,994.75
2019-05-29T12:13:26.412Z,994.77
2019-05-29T12:14:26.416Z,994.76
2019-05-29T12:15:26.466Z,994.80
2019-05-29T12:16:26.405Z,994.77
2019-05-29T12:17:26.680Z,994.79
2019-05-29T12:18:26.374Z,994.82
2019-05-29T12:19:26.411Z,994.81
2019-05-29T12:20:28.841Z,994.81
2019-05-29T12:21:26.337Z,994.82
2019-05-29T12:22:26.336Z,994.86
2019-05-29T12:23:27.231Z,994.84
2019-05-29T12:24:26.306Z,994.78
2019-05-29T12:25:26.290Z,994.79
2019-05-29T12:26:26.271Z,994.80
2019-05-29T12:27:26.327Z,994.81
2019-05-29T12:28:26.280Z,994.75
2019-05-29T12:29:26.243Z,994.79
2019-05-29T12:30:26.288Z,994.88
2019-05-29T12:31:26.226Z,994.85